Time;durP1;ratioP1;P1;durP2;ratioP2;P2;SDS_P1;SDS_P2;PMS_P1;PMS_P2;Temp;Humidity;BMP_temperature;BMP_pressure;BME280_temperature;BME280_humidity;BME280_pressure;Samples;Min_cycle;Max_cycle;Signal;HPM_P1;HPM_P2
2023/02/13 00:00:34;;;;;;;0.80;0.80;;;7.50;75.30;;;7.11;61.53;96806.97;4992316;28;20222;-16
2023/02/13 00:03:03;;;;;;;0.65;0.65;;;7.50;75.10;;;7.05;61.13;96810.91;4976067;28;20201;-16
2023/02/13 00:05:30;;;;;;;0.80;0.80;;;7.40;75.00;;;7.02;61.24;96811.16;4992629;28;20611;-16
2023/02/13 00:07:57;;;;;;;0.60;0.60;;;7.40;74.80;;;6.99;61.60;96810.56;4993067;28;20202;-17
2023/02/13 00:10:24;;;;;;;0.70;0.70;;;7.40;75.00;;;6.97;61.75;96817.69;4992811;28;20216;-16
2023/02/13 00:12:51;;;;;;;0.70;0.70;;;7.40;75.00;;;6.94;62.42;96815.31;4993042;28;20282;-16
2023/02/13 00:15:18;;;;;;;0.63;0.63;;;7.40;75.20;;;6.94;62.97;96812.72;4992999;28;20273;-16
2023/02/13 00:17:45;;;;;;;0.60;0.60;;;7.40;75.50;;;6.89;63.86;96811.28;4992653;28;20275;-16
2023/02/13 00:20:13;;;;;;;0.70;0.70;;;7.30;76.00;;;6.93;63.50;96816.28;4992588;28;20552;-16
2023/02/13 00:22:40;;;;;;;0.65;0.65;;;7.30;76.10;;;6.96;63.55;96808.22;4992718;28;20194;-16
2023/02/13 00:25:08;;;;;;;0.80;0.80;;;7.30;76.20;;;6.96;63.73;96810.81;4992461;28;20190;-16
2023/02/13 00:27:35;;;;;;;0.60;0.60;;;7.30;76.30;;;6.99;63.78;96813.19;4992886;28;20224;-16
2023/02/13 00:30:03;;;;;;;0.60;0.60;;;7.40;76.40;;;7.02;63.08;96818.16;4992593;28;20202;-17
2023/02/13 00:32:31;;;;;;;0.60;0.60;;;7.40;76.20;;;7.06;62.78;96809.13;4992801;28;20202;-16
2023/02/13 00:34:58;;;;;;;0.70;0.70;;;7.40;76.00;;;7.06;62.54;96811.75;4991407;28;20202;-16
2023/02/13 00:37:25;;;;;;;0.80;0.80;;;7.40;75.90;;;7.03;62.58;96810.22;4991651;28;20254;-18
2023/02/13 00:39:52;;;;;;;0.80;0.80;;;7.40;75.80;;;7.03;62.38;96817.19;4992524;28;20217;-17
2023/02/13 00:42:22;;;;;;;0.70;0.70;;;7.40;75.70;;;7.02;62.30;96811.16;4991486;28;20614;-17
2023/02/13 00:44:49;;;;;;;0.70;0.70;;;7.40;75.60;;;7.02;62.17;96826.00;4992063;28;20602;-17
2023/02/13 00:47:17;;;;;;;0.70;0.70;;;7.40;75.60;;;7.00;62.27;96820.06;4994919;28;20206;-17
2023/02/13 00:49:44;;;;;;;0.70;0.70;;;7.40;76.40;;;7.02;62.27;96829.41;4995945;28;20221;-17
2023/02/13 00:52:12;;;;;;;0.68;0.68;;;7.40;75.60;;;7.00;62.49;96822.66;4994848;28;20230;-17
2023/02/13 00:54:38;;;;;;;0.77;0.77;;;7.40;75.70;;;6.96;62.24;96829.09;4995544;28;20190;-17
2023/02/13 00:57:06;;;;;;;0.60;0.60;;;7.40;75.60;;;6.96;62.16;96824.69;4978777;28;20317;-17
2023/02/13 00:59:34;;;;;;;0.77;0.77;;;7.30;75.40;;;6.95;61.87;96830.84;4978734;28;20222;-17
2023/02/13 01:02:01;;;;;;;0.70;0.70;;;7.30;75.30;;;6.94;61.95;96831.78;4995028;28;20229;-17
2023/02/13 01:04:28;;;;;;;0.80;0.80;;;7.30;75.30;;;6.91;61.77;96829.44;4994616;28;20645;-17
2023/02/13 01:06:56;;;;;;;0.70;0.70;;;7.30;75.40;;;6.91;62.11;96826.84;4995539;28;20230;-17
2023/02/13 01:09:24;;;;;;;0.80;0.80;;;7.30;75.40;;;6.86;63.20;96819.38;4978536;28;20233;-17
2023/02/13 01:11:51;;;;;;;0.60;0.60;;;7.30;75.80;;;6.88;63.10;96820.09;4994548;28;20255;-17
2023/02/13 01:14:18;;;;;;;0.68;0.68;;;7.30;76.00;;;6.91;63.00;96815.56;4995667;28;20194;-17
2023/02/13 01:16:47;;;;;;;0.70;0.70;;;7.30;76.10;;;6.93;63.01;96814.47;4994304;28;20365;-17
2023/02/13 01:19:14;;;;;;;0.70;0.70;;;7.30;76.00;;;6.97;62.78;96813.31;4995312;28;20186;-17
2023/02/13 01:21:43;;;;;;;0.60;0.60;;;7.30;75.90;;;6.97;63.02;96802.88;4994364;28;20640;-17
2023/02/13 01:24:10;;;;;;;0.70;0.70;;;7.30;75.90;;;7.00;62.47;96793.97;4994348;28;20198;-17
2023/02/13 01:26:37;;;;;;;0.70;0.70;;;7.30;75.80;;;7.02;62.32;96794.69;4994152;28;20552;-17
2023/02/13 01:29:04;;;;;;;0.70;0.70;;;7.30;75.80;;;7.00;62.44;96799.19;4995266;28;20197;-17
2023/02/13 01:31:32;;;;;;;0.70;0.70;;;7.30;75.80;;;7.02;62.47;96797.28;4978265;28;20301;-17
2023/02/13 01:33:59;;;;;;;0.70;0.70;;;7.30;75.90;;;7.04;62.86;96798.81;4978176;28;20213;-17
2023/02/13 01:36:26;;;;;;;0.70;0.70;;;7.30;75.90;;;7.08;62.67;96803.78;4994061;28;20221;-17
2023/02/13 01:38:56;;;;;;;0.60;0.60;;;7.40;76.00;;;7.06;62.32;96793.47;4995337;28;20209;-17
2023/02/13 01:41:25;;;;;;;0.70;0.70;;;7.40;75.90;;;7.08;62.37;96795.94;4995014;28;20210;-17
2023/02/13 01:43:57;;;;;;;0.63;0.63;;;7.40;75.70;;;7.05;62.30;96784.84;4995017;28;20201;-17
2023/02/13 01:46:36;;;;;;;0.70;0.70;;;7.40;75.80;;;7.09;62.02;96795.81;4993986;28;20197;-17
2023/02/13 01:49:17;;;;;;;0.60;0.60;;;7.40;75.70;;;7.05;62.16;96782.22;4995196;28;20197;-17
2023/02/13 01:51:46;;;;;;;0.80;0.80;;;7.40;75.60;;;7.05;61.99;96779.59;4995195;28;20521;-17
2023/02/13 01:54:29;;;;;;;0.60;0.60;;;7.40;75.60;;;7.03;61.84;96788.47;4994881;28;20205;-17
2023/02/13 01:57:15;;;;;;;0.73;0.73;;;7.40;75.60;;;7.03;62.02;96785.88;4963552;28;20202;-17
2023/02/13 01:59:54;;;;;;;0.68;0.68;;;7.30;75.50;;;7.00;62.15;96781.75;4977769;28;20621;-17
2023/02/13 02:02:22;;;;;;;0.70;0.70;;;7.30;75.70;;;6.98;62.52;96780.22;4994115;28;20193;-17
2023/02/13 02:04:50;;;;;;;0.70;0.70;;;7.30;75.80;;;6.99;62.67;96781.88;4977493;28;20194;-17
2023/02/13 02:07:30;;;;;;;0.70;0.70;;;7.30;75.80;;;6.95;62.70;96773.47;4993660;28;20201;-17
2023/02/13 02:10:08;;;;;;;0.73;0.73;;;7.30;75.90;;;6.94;63.25;96773.59;4993719;28;20194;-17
2023/02/13 02:13:02;;;;;;;0.70;0.70;;;7.30;76.10;;;6.92;63.35;96765.91;4993693;28;20205;-17
2023/02/13 02:15:30;;;;;;;0.70;0.70;;;7.30;76.20;;;6.94;63.58;96771.78;4993730;28;20183;-17
2023/02/13 02:17:58;;;;;;;0.70;0.70;;;7.30;76.20;;;6.93;63.61;96758.88;4993648;28;20284;-17
2023/02/13 02:21:14;;;;;;;0.80;0.80;;;7.40;76.40;;;6.96;63.92;96766.47;4977407;28;20226;-17
2023/02/13 02:23:57;;;;;;;0.60;0.60;;;7.30;76.50;;;6.95;63.80;96762.22;4993492;28;20198;-17
2023/02/13 02:26:57;;;;;;;0.70;0.70;;;7.40;76.60;;;6.97;64.07;96765.50;4993303;28;20202;-17
2023/02/13 02:29:48;;;;;;;0.70;0.70;;;7.40;76.80;;;7.01;64.49;96765.13;4977863;28;20267;-17
2023/02/13 02:32:42;;;;;;;0.70;0.70;;;7.40;76.90;;;7.04;64.21;96767.50;4977363;28;20195;-17
2023/02/13 02:35:33;;;;;;;0.80;0.80;;;7.40;77.00;;;7.05;63.55;96763.97;4993312;28;20272;-17
2023/02/13 02:38:45;;;;;;;0.65;0.65;;;7.40;76.90;;;7.03;63.84;96763.25;4993515;28;20186;-17
2023/02/13 02:41:41;;;;;;;0.70;0.70;;;7.40;76.70;;;7.03;63.96;96762.41;5001311;28;20233;-17
2023/02/13 02:44:53;;;;;;;0.60;0.60;;;7.40;76.80;;;7.01;64.19;96770.34;4993151;28;20208;-17
2023/02/13 02:50:36;;;;;;;0.60;0.60;;;7.40;76.90;;;6.97;64.49;96763.75;4993536;28;20197;-17
2023/02/13 02:53:13;;;;;;;0.70;0.70;;;7.40;77.00;;;7.01;64.28;96764.31;4993066;28;20248;-17
2023/02/13 02:55:47;;;;;;;0.60;0.60;;;7.40;76.90;;;6.99;64.38;96761.00;4993869;28;20174;-17
2023/02/13 03:07:23;;;;;;;0.80;0.80;;;7.40;77.00;;;6.94;64.62;96769.19;4993763;28;20186;-17
2023/02/13 03:22:19;;;;;;;0.70;0.70;;;7.40;77.00;;;6.86;64.27;96779.41;4993820;28;20214;-17
2023/02/13 03:25:33;;;;;;;0.70;0.70;;;7.30;76.80;;;6.81;64.41;96773.72;4992757;28;20627;-17
2023/02/13 03:31:21;;;;;;;0.70;0.70;;;7.30;76.90;;;6.82;64.30;96781.44;4993604;28;20221;-17
2023/02/13 03:34:19;;;;;;;0.80;0.80;;;7.20;76.80;;;6.78;64.73;96772.19;4993353;28;20609;-17
2023/02/13 03:40:00;;;;;;;0.60;0.60;;;7.20;77.20;;;6.77;64.62;96773.13;4992851;28;20201;-17
2023/02/13 03:42:41;;;;;;;0.70;0.70;;;7.20;77.20;;;6.75;65.03;96772.44;4993324;28;20178;-17
2023/02/13 03:48:08;;;;;;;0.70;0.70;;;7.20;77.40;;;6.86;64.53;96776.78;4992726;28;20194;-17
2023/02/13 03:50:42;;;;;;;0.60;0.60;;;7.20;77.40;;;6.86;64.45;96775.03;4992370;28;20194;-17
2023/02/13 03:53:13;;;;;;;0.65;0.65;;;7.20;78.20;;;6.87;64.42;96776.69;4992526;28;20201;-17
2023/02/13 04:01:30;;;;;;;0.70;0.70;;;7.20;77.20;;;6.91;64.20;96774.66;4993147;28;20222;-17
2023/02/13 04:04:26;;;;;;;0.80;0.80;;;7.20;77.10;;;6.96;63.96;96772.50;4976196;28;20174;-17
2023/02/13 04:07:07;;;;;;;0.70;0.70;;;7.20;77.10;;;6.93;64.00;96771.94;4991803;28;20237;-17
2023/02/13 04:09:40;;;;;;;0.70;0.70;;;7.20;77.10;;;6.93;63.70;96769.31;4992930;28;20178;-17
2023/02/13 04:12:21;;;;;;;0.63;0.63;;;7.20;77.00;;;6.97;63.63;96766.34;4992819;28;20186;-17
2023/02/13 04:14:57;;;;;;;0.68;0.68;;;7.20;77.00;;;6.96;63.53;96761.25;4976084;28;20196;-17
2023/02/13 04:17:38;;;;;;;0.68;0.68;;;7.20;76.90;;;6.96;63.28;96758.66;4991806;28;20178;-17
2023/02/13 04:20:07;;;;;;;0.60;0.60;;;7.20;77.00;;;6.98;63.52;96762.78;4991428;28;20190;-17
2023/02/13 04:22:41;;;;;;;0.80;0.80;;;7.20;76.90;;;6.97;63.73;96757.69;4992679;28;20198;-17
2023/02/13 04:25:09;;;;;;;0.70;0.70;;;7.20;77.00;;;6.98;63.68;96752.34;4992662;28;20178;-17
2023/02/13 04:27:36;;;;;;;0.70;0.70;;;7.20;77.00;;;6.99;63.59;96759.19;4992549;28;20198;-17
2023/02/13 04:30:05;;;;;;;0.70;0.70;;;7.30;77.10;;;6.98;64.00;96759.34;4992669;28;20217;-17
2023/02/13 04:32:32;;;;;;;0.70;0.70;;;7.30;77.10;;;6.96;64.13;96753.44;4992531;28;20247;-17
2023/02/13 04:34:59;;;;;;;0.70;0.70;;;7.30;77.10;;;6.97;64.12;96768.09;4992544;28;20190;-17
2023/02/13 04:37:26;;;;;;;0.70;0.70;;;7.30;77.10;;;6.95;63.74;96754.38;4992475;28;20247;-17
2023/02/13 04:39:53;;;;;;;0.70;0.70;;;7.30;77.00;;;6.97;63.59;96760.28;4991630;28;20288;-17
2023/02/13 04:42:20;;;;;;;0.50;0.50;;;7.20;76.90;;;6.96;63.44;96758.66;4992582;28;20230;-17
2023/02/13 04:44:47;;;;;;;0.60;0.60;;;7.20;76.90;;;6.95;63.52;96762.22;4992416;28;20190;-17
2023/02/13 04:47:14;;;;;;;0.70;0.70;;;7.30;77.30;;;6.88;63.42;96762.69;4992274;28;20205;-17
2023/02/13 04:49:41;;;;;;;0.80;0.80;;;7.30;76.90;;;6.92;63.40;96759.84;4992425;28;20209;-17
2023/02/13 04:52:08;;;;;;;0.70;0.70;;;7.20;76.80;;;6.87;63.16;96760.19;4992395;28;20510;-17
2023/02/13 04:54:35;;;;;;;0.80;0.80;;;7.20;76.80;;;6.84;63.46;96760.47;4992318;28;20633;-17
2023/02/13 04:57:02;;;;;;;0.70;0.70;;;7.20;76.80;;;6.86;63.65;96761.13;4991299;28;20213;-17
2023/02/13 04:59:29;;;;;;;0.70;0.70;;;7.20;76.90;;;6.81;63.58;96755.47;4992248;28;20199;-17
2023/02/13 05:01:58;;;;;;;0.80;0.80;;;7.10;76.80;;;6.81;63.57;96758.94;4991273;28;20218;-17
2023/02/13 05:04:25;;;;;;;0.75;0.75;;;7.10;76.90;;;6.82;63.69;96759.75;4992170;28;20520;-17
2023/02/13 05:06:52;;;;;;;0.70;0.70;;;7.10;76.80;;;6.83;63.46;96762.22;4991806;28;20236;-17
2023/02/13 05:09:19;;;;;;;0.70;0.70;;;7.10;76.80;;;6.80;63.57;96757.25;4992226;28;20251;-17
2023/02/13 05:11:46;;;;;;;0.80;0.80;;;7.10;76.90;;;6.82;63.23;96757.13;4992149;28;20285;-17
2023/02/13 05:14:13;;;;;;;0.60;0.60;;;7.10;76.80;;;6.78;63.46;96759.16;4992360;28;20213;-17
2023/02/13 05:16:40;;;;;;;0.70;0.70;;;7.10;76.80;;;6.79;63.45;96752.19;4991903;28;20214;-17
2023/02/13 05:19:07;;;;;;;0.70;0.70;;;7.10;76.80;;;6.82;63.41;96757.97;4992711;28;20260;-17
2023/02/13 05:24:21;;;;;;;0.60;0.60;;;7.10;76.90;;;6.79;63.62;96757.38;4991983;28;20617;-17
2023/02/13 05:26:48;;;;;;;0.70;0.70;;;7.10;77.70;;;6.80;63.53;96754.66;4992199;28;20244;-17
2023/02/13 05:29:17;;;;;;;0.80;0.80;;;7.10;76.90;;;6.83;63.30;96757.00;4991902;28;20193;-17
2023/02/13 05:31:51;;;;;;;0.63;0.63;;;7.10;76.90;;;6.83;63.54;96762.22;4992534;28;20226;-18
2023/02/13 05:34:21;;;;;;;0.68;0.68;;;7.10;76.90;;;6.79;63.34;96763.41;4995343;28;20190;-17
2023/02/13 05:36:48;;;;;;;0.60;0.60;;;7.10;76.90;;;6.79;63.71;96768.63;4978101;28;20648;-17
2023/02/13 05:39:16;;;;;;;0.60;0.60;;;7.10;76.90;;;6.75;63.86;96766.38;4994489;28;20206;-17
2023/02/13 05:41:45;;;;;;;0.60;0.60;;;7.10;76.90;;;6.72;63.73;96770.88;4994068;28;20229;-17
2023/02/13 05:44:14;;;;;;;0.60;0.60;;;7.10;76.90;;;6.69;63.96;96765.94;4995008;28;20273;-17
2023/02/13 05:46:43;;;;;;;0.70;0.70;;;7.10;77.00;;;6.67;63.95;96774.84;4995005;28;20210;-17
2023/02/13 05:49:13;;;;;;;0.70;0.70;;;7.10;77.10;;;6.66;64.08;96773.97;4994403;28;20212;-17
2023/02/13 05:51:42;;;;;;;0.70;0.70;;;7.00;77.00;;;6.68;63.89;96773.88;5045375;28;20214;-17
2023/02/13 05:54:09;;;;;;;0.80;0.80;;;7.00;77.00;;;6.68;63.58;96768.66;4994913;28;20191;-17
2023/02/13 05:56:36;;;;;;;0.70;0.70;;;7.00;77.10;;;6.71;63.87;96784.91;4994645;28;20218;-17
2023/02/13 05:59:03;;;;;;;0.80;0.80;;;7.00;77.10;;;6.73;63.71;96780.38;4995093;28;20206;-17
2023/02/13 06:01:30;;;;;;;0.57;0.57;;;7.00;77.10;;;6.75;63.76;96784.66;4994668;28;20224;-17
2023/02/13 06:03:57;;;;;;;0.65;0.65;;;7.10;77.10;;;6.72;63.70;96773.50;4994722;28;20194;-17
2023/02/13 06:06:28;;;;;;;0.70;0.70;;;7.10;77.10;;;6.75;63.71;96782.03;4977838;28;20238;-17
2023/02/13 06:08:55;;;;;;;0.70;0.70;;;7.10;77.00;;;6.73;63.86;96782.97;4994663;28;20206;-17
2023/02/13 06:11:22;;;;;;;0.75;0.75;;;7.10;77.00;;;6.78;63.49;96787.03;4977648;28;20206;-17
2023/02/13 06:13:49;;;;;;;0.60;0.60;;;7.10;77.00;;;6.79;63.42;96797.31;4994561;28;20198;-17
2023/02/13 06:16:17;;;;;;;0.77;0.77;;;7.10;77.00;;;6.75;63.77;96788.09;4993923;28;20285;-17
2023/02/13 06:18:44;;;;;;;0.70;0.70;;;7.20;77.00;;;6.80;63.46;96804.22;4993528;28;20580;-17
2023/02/13 06:21:11;;;;;;;0.60;0.60;;;7.10;77.00;;;6.80;63.62;96795.53;4994423;28;20221;-17
2023/02/13 06:23:38;;;;;;;0.70;0.70;;;7.10;76.90;;;6.77;63.68;96796.63;4993588;28;20190;-17
2023/02/13 06:26:08;;;;;;;0.70;0.70;;;7.20;77.00;;;6.78;63.55;96802.69;4993424;28;20647;-17
2023/02/13 06:28:36;;;;;;;0.65;0.65;;;7.20;77.00;;;6.75;63.67;96803.75;4994314;28;20614;-17
2023/02/13 06:31:04;;;;;;;0.50;0.50;;;7.20;77.00;;;6.74;63.68;96802.09;4993586;28;20221;-17
2023/02/13 06:33:31;;;;;;;0.60;0.60;;;7.10;77.00;;;6.72;63.99;96804.78;4994270;28;20199;-17
2023/02/13 06:36:04;;;;;;;0.60;0.60;;;7.10;77.00;;;6.71;64.00;96816.19;4994215;28;20202;-18
2023/02/13 06:38:31;;;;;;;0.70;0.70;;;7.10;77.10;;;6.65;64.41;96810.63;4994037;28;20637;-17
2023/02/13 06:41:03;;;;;;;0.68;0.68;;;7.10;77.30;;;6.65;64.27;96819.28;4994071;28;20247;-17
2023/02/13 06:43:30;;;;;;;0.60;0.60;;;7.00;77.30;;;6.64;64.36;96811.56;4993769;28;20197;-17
2023/02/13 06:45:57;;;;;;;0.80;0.80;;;7.00;77.40;;;6.62;64.40;96816.91;4994175;28;20259;-17
2023/02/13 06:48:25;;;;;;;0.60;0.60;;;7.00;77.40;;;6.60;64.69;96817.97;4993898;28;20233;-17
2023/02/13 06:50:52;;;;;;;0.88;0.88;;;7.00;77.50;;;6.62;64.20;96823.91;4994271;28;20198;-17
2023/02/13 06:53:23;;;;;;;0.70;0.70;;;7.00;77.50;;;6.64;64.20;96824.59;4993354;28;20652;-17
2023/02/13 06:55:55;;;;;;;0.70;0.70;;;7.00;77.50;;;6.64;64.24;96822.00;4994105;28;20191;-17
2023/02/13 06:58:24;;;;;;;0.70;0.70;;;7.00;77.40;;;6.60;64.18;96821.41;4993102;28;20174;-17
2023/02/13 07:00:52;;;;;;;0.68;0.68;;;7.00;77.40;;;6.61;64.29;96824.84;4993920;28;20217;-17
2023/02/13 07:03:19;;;;;;;0.70;0.70;;;7.00;77.50;;;6.61;64.44;96830.88;4993001;28;20639;-17
2023/02/13 07:05:46;;;;;;;0.50;0.50;;;7.00;77.50;;;6.62;64.58;96829.13;4993636;28;20237;-17
2023/02/13 07:08:13;;;;;;;0.60;0.60;;;7.00;77.50;;;6.61;64.32;96824.84;4993627;28;20221;-17
2023/02/13 07:10:41;;;;;;;0.80;0.80;;;7.00;77.50;;;6.61;64.33;96827.47;4976708;28;20198;-17
2023/02/13 07:13:09;;;;;;;0.60;0.60;;;7.00;77.50;;;6.63;64.17;96821.19;4993690;28;20621;-17
2023/02/13 07:15:37;;;;;;;0.60;0.60;;;7.00;77.50;;;6.66;64.34;96820.09;4993603;28;20633;-17
2023/02/13 07:18:04;;;;;;;0.70;0.70;;;7.00;77.50;;;6.69;64.26;96828.53;4993693;28;20194;-17
2023/02/13 07:20:32;;;;;;;0.70;0.70;;;7.00;77.50;;;6.70;64.18;96822.34;4993590;28;20198;-17
2023/02/13 07:23:01;;;;;;;0.60;0.60;;;7.00;77.40;;;6.73;64.10;96832.53;4993391;28;20210;-17
2023/02/13 07:25:29;;;;;;;0.60;0.60;;;7.10;77.50;;;6.73;64.07;96831.72;4993409;28;20637;-17
2023/02/13 07:28:02;;;;;;;0.63;0.63;;;7.10;77.40;;;6.76;64.11;96825.44;4992474;28;20251;-17
2023/02/13 07:30:31;;;;;;;0.70;0.70;;;7.10;77.40;;;6.81;64.10;96833.72;4993698;28;20274;-17
2023/02/13 07:33:03;;;;;;;0.57;0.57;;;7.10;77.40;;;6.83;63.81;96834.44;4993646;28;20233;-17
2023/02/13 07:35:30;;;;;;;0.70;0.70;;;7.10;77.40;;;6.86;63.65;96828.97;4993471;28;20178;-17
2023/02/13 07:37:59;;;;;;;0.70;0.70;;;7.20;77.40;;;6.85;63.72;96832.53;4992320;28;20202;-17
2023/02/13 07:40:27;;;;;;;0.50;0.50;;;7.20;77.30;;;6.85;63.54;96845.59;4993519;28;20213;-17
2023/02/13 07:42:55;;;;;;;0.70;0.70;;;7.20;77.20;;;6.88;63.51;96843.56;4993437;28;20518;-17
2023/02/13 07:45:22;;;;;;;0.70;0.70;;;7.20;77.10;;;6.89;63.47;96839.16;4992538;28;20182;-17
2023/02/13 07:47:49;;;;;;;0.65;0.65;;;7.30;77.10;;;6.96;63.30;96840.34;4992332;28;20198;-17
2023/02/13 07:50:16;;;;;;;0.70;0.70;;;7.30;77.10;;;7.02;63.35;96831.22;4992201;28;20293;-17
2023/02/13 07:52:43;;;;;;;0.70;0.70;;;7.30;77.00;;;7.06;63.11;96830.00;4993349;28;20198;-17
2023/02/13 07:55:10;;;;;;;0.70;0.70;;;7.40;77.00;;;7.15;62.93;96833.66;4991313;28;20194;-17
2023/02/13 07:57:37;;;;;;;0.70;0.70;;;7.40;77.00;;;7.15;62.83;96826.66;4992926;28;20579;-17
2023/02/13 08:00:05;;;;;;;0.68;0.68;;;7.50;76.90;;;7.15;62.54;96831.03;4993019;28;20224;-17
2023/02/13 08:02:37;;;;;;;0.60;0.60;;;7.50;76.70;;;7.16;62.26;96824.88;4992955;28;20218;-17
2023/02/13 08:05:05;;;;;;;0.70;0.70;;;7.60;76.60;;;7.22;62.37;96821.78;4991999;28;20260;-17
2023/02/13 08:07:32;;;;;;;0.70;0.70;;;7.60;76.60;;;7.28;62.40;96818.66;4991921;28;20190;-17
2023/02/13 08:12:46;;;;;;;0.70;0.70;;;7.70;76.50;;;7.44;61.88;96813.03;4993102;28;20205;-17
2023/02/13 08:15:14;;;;;;;0.60;0.60;;;7.80;76.40;;;7.51;61.97;96813.38;4992789;28;20259;-17
2023/02/13 08:17:41;;;;;;;0.80;0.80;;;7.80;76.30;;;7.56;61.48;96818.22;4992586;28;20194;-17
2023/02/13 08:20:09;;;;;;;0.70;0.70;;;7.90;76.10;;;7.61;61.06;96810.84;4992926;28;20190;-17
2023/02/13 08:22:38;;;;;;;0.70;0.70;;;8.00;76.00;;;7.69;61.26;96821.47;4992832;28;20278;-17
2023/02/13 08:25:06;;;;;;;0.70;0.70;;;8.10;76.00;;;7.75;61.03;96815.75;4992941;28;20283;-17
2023/02/13 08:27:33;;;;;;;0.65;0.65;;;8.20;75.80;;;7.83;60.96;96821.16;4992487;28;20531;-17
2023/02/13 08:30:03;;;;;;;0.70;0.70;;;8.20;75.80;;;7.88;60.42;96817.34;4991899;28;20191;-17
2023/02/13 08:32:30;;;;;;;0.70;0.70;;;8.30;75.30;;;7.95;60.72;96824.53;4991744;28;20648;-17
2023/02/13 08:35:05;;;;;;;0.60;0.60;;;8.40;75.60;;;8.03;60.70;96826.50;4991833;28;20182;-17
2023/02/13 08:37:32;;;;;;;0.70;0.70;;;8.40;75.50;;;8.10;60.76;96826.81;4992371;28;20233;-17
2023/02/13 08:39:59;;;;;;;0.70;0.70;;;8.50;75.30;;;8.21;60.13;96833.75;4992533;28;20198;-17
2023/02/13 08:42:26;;;;;;;0.60;0.60;;;8.60;75.30;;;8.22;59.81;96825.78;4992378;28;20227;-17
2023/02/13 08:44:54;;;;;;;0.70;0.70;;;8.70;75.00;;;8.30;60.09;96827.75;4992707;28;20190;-17
2023/02/13 08:47:21;;;;;;;0.70;0.70;;;8.70;75.00;;;8.29;58.78;96826.13;4991548;28;20259;-17
2023/02/13 08:49:48;;;;;;;0.50;0.50;;;8.80;75.00;;;8.32;58.69;96828.44;4991617;28;20259;-17
2023/02/13 08:52:15;;;;;;;0.70;0.70;;;8.80;74.60;;;8.33;58.05;96832.72;4992524;28;20208;-17
2023/02/13 08:54:42;;;;;;;0.70;0.70;;;8.80;73.90;;;8.32;57.62;96829.28;4992363;28;20273;-17
2023/02/13 08:57:09;;;;;;;0.60;0.60;;;8.90;73.90;;;8.37;58.54;96830.69;4991428;28;20275;-17
2023/02/13 08:59:36;;;;;;;0.60;0.60;;;8.90;74.00;;;8.45;58.47;96830.88;4992131;28;20575;-17
2023/02/13 09:02:03;;;;;;;0.60;0.60;;;9.00;74.20;;;8.51;58.80;96830.38;4992187;28;20210;-17
2023/02/13 09:04:31;;;;;;;0.60;0.60;;;9.00;74.20;;;8.55;58.42;96823.91;4992223;28;20190;-18
2023/02/13 09:06:58;;;;;;;0.60;0.60;;;9.10;74.10;;;8.64;58.35;96830.97;4994400;28;20316;-17
2023/02/13 09:09:25;;;;;;;0.60;0.60;;;9.10;73.90;;;8.74;58.79;96830.16;4995403;28;20197;-17
2023/02/13 09:11:55;;;;;;;0.60;0.60;;;9.10;74.10;;;8.82;58.11;96835.56;4995654;28;20197;-18
2023/02/13 09:14:22;;;;;;;0.65;0.65;;;9.20;73.80;;;8.86;58.32;96839.59;4994505;28;20541;-17
2023/02/13 09:16:50;;;;;;;0.60;0.60;;;9.30;73.80;;;8.85;56.53;96837.09;4995435;28;20532;-17
2023/02/13 09:19:18;;;;;;;0.70;0.70;;;9.30;73.00;;;8.88;56.46;96842.88;4995488;28;20213;-17
2023/02/13 09:21:45;;;;;;;0.70;0.70;;;9.30;72.70;;;8.90;56.84;96833.13;4995433;28;20221;-17
2023/02/13 09:24:12;;;;;;;0.60;0.60;;;9.30;72.90;;;8.94;56.65;96839.72;4994389;28;20221;-17
2023/02/13 09:26:39;;;;;;;0.80;0.80;;;9.40;72.70;;;8.92;56.86;96831.19;4978355;28;20206;-17
2023/02/13 09:29:06;;;;;;;0.60;0.60;;;9.40;72.80;;;8.94;56.14;96833.69;4994163;28;20225;-17
2023/02/13 09:31:33;;;;;;;0.70;0.70;;;9.40;72.20;;;8.95;56.85;96837.97;4994238;28;20698;-17
2023/02/13 09:34:00;;;;;;;0.50;0.50;;;9.50;72.50;;;8.97;55.95;96841.25;4995214;28;20259;-17
2023/02/13 09:36:28;;;;;;;0.60;0.60;;;9.60;72.20;;;9.02;56.17;96846.09;4995160;28;20194;-17
2023/02/13 09:38:56;;;;;;;0.70;0.70;;;9.60;72.20;;;9.09;55.44;96844.59;4977990;28;20208;-17
2023/02/13 09:41:35;;;;;;;0.80;0.80;;;9.60;71.50;;;9.10;55.14;96851.47;4978100;28;20194;-17
2023/02/13 09:44:40;;;;;;;0.60;0.60;;;9.60;71.40;;;9.13;55.41;96856.47;4994435;28;20633;-17
2023/02/13 09:47:24;;;;;;;0.80;0.80;;;9.70;71.40;;;9.15;54.97;96851.09;4989564;28;20377;-17
2023/02/13 09:49:57;;;;;;;0.70;0.70;;;9.80;71.40;;;9.20;55.51;96843.66;4994831;28;20206;-17
2023/02/13 09:52:27;;;;;;;0.70;0.70;;;9.80;71.40;;;9.32;55.68;96852.22;4994285;28;20186;-17
2023/02/13 09:54:54;;;;;;;0.60;0.60;;;9.90;71.50;;;9.38;55.56;96849.06;4994177;28;20187;-17
2023/02/13 09:57:35;;;;;;;0.60;0.60;;;9.90;71.50;;;9.43;55.14;96841.59;4994822;28;20206;-17
2023/02/13 10:00:17;;;;;;;0.63;0.63;;;10.00;69.80;;;9.52;54.98;96850.44;4994691;28;20519;-17
2023/02/13 10:03:12;;;;;;;0.60;0.60;;;10.10;69.80;;;9.57;54.88;96849.06;4994738;28;20197;-18
2023/02/13 10:06:18;;;;;;;0.60;0.60;;;10.10;69.60;;;9.66;54.69;96847.41;4978532;28;20287;-17
2023/02/13 10:09:01;;;;;;;0.60;0.60;;;10.20;69.90;;;9.70;53.56;96845.34;5000393;28;20205;-17
2023/02/13 10:12:03;;;;;;;0.60;0.60;;;10.30;69.20;;;9.77;54.08;96849.88;4994743;28;20667;-18
2023/02/13 10:14:58;;;;;;;0.60;0.60;;;10.30;69.30;;;9.84;53.85;96844.94;4994611;28;20193;-18
2023/02/13 10:17:37;;;;;;;0.80;0.80;;;10.30;69.10;;;9.90;53.21;96847.00;4994006;28;20208;-17
2023/02/13 10:20:28;;;;;;;0.80;0.80;;;10.40;68.90;;;9.97;53.95;96834.13;4994642;28;20197;-17
2023/02/13 10:23:28;;;;;;;0.65;0.65;;;10.50;69.20;;;10.03;54.05;96841.47;4977466;28;20209;-18
2023/02/13 10:26:06;;;;;;;0.70;0.70;;;10.50;69.30;;;10.07;53.27;96848.06;4994736;28;20528;-18
2023/02/13 10:32:01;;;;;;;0.70;0.70;;;10.60;69.20;;;10.14;53.03;96832.59;5001919;28;20543;-17
2023/02/13 10:34:36;;;;;;;0.70;0.70;;;10.60;68.50;;;10.15;52.49;96830.81;4994349;28;20204;-18
2023/02/13 10:37:17;;;;;;;0.60;0.60;;;10.70;68.20;;;10.19;52.93;96833.00;4994351;28;20203;-18
2023/02/13 10:39:51;;;;;;;0.70;0.70;;;10.70;68.40;;;10.19;52.28;96827.78;4993471;28;20174;-18
2023/02/13 10:42:58;;;;;;;0.70;0.70;;;10.70;68.20;;;10.29;53.16;96832.16;4993308;28;20202;-18
2023/02/13 10:45:50;;;;;;;0.60;0.60;;;10.70;68.50;;;10.33;53.11;96833.53;4994203;28;20364;-17
2023/02/13 10:48:35;;;;;;;0.70;0.70;;;10.70;68.50;;;10.41;53.21;96826.63;4993240;28;20196;-18
2023/02/13 10:51:44;;;;;;;0.60;0.60;;;10.80;68.40;;;10.44;52.39;96822.06;4994263;28;20223;-18
2023/02/13 10:54:33;;;;;;;0.70;0.70;;;10.80;68.10;;;10.44;52.58;96815.03;4993219;28;20201;-18
2023/02/13 10:57:27;;;;;;;0.70;0.70;;;10.90;68.10;;;10.49;51.93;96812.78;4994275;28;20516;-17
2023/02/13 11:00:11;;;;;;;0.70;0.70;;;10.90;68.00;;;10.52;51.12;96817.75;4993807;28;20182;-17
2023/02/13 11:02:40;;;;;;;0.60;0.60;;;11.00;67.20;;;10.52;51.38;96809.88;4993231;28;20304;-17
2023/02/13 11:05:20;;;;;;;0.60;0.60;;;11.00;67.40;;;10.56;51.09;96818.28;4993692;28;20244;-17
2023/02/13 11:07:48;;;;;;;0.60;0.60;;;11.10;67.30;;;10.58;51.68;96813.72;4993994;28;20265;-18
2023/02/13 11:10:21;;;;;;;0.70;0.70;;;11.00;68.20;;;10.65;51.88;96814.78;4993565;28;20531;-17
2023/02/13 11:12:49;;;;;;;0.70;0.70;;;11.00;67.60;;;10.68;51.40;96797.91;4993761;28;20200;-17
2023/02/13 11:15:30;;;;;;;0.60;0.60;;;11.10;67.40;;;10.74;50.72;96794.72;4993721;28;20289;-19
2023/02/13 11:18:10;;;;;;;0.60;0.60;;;11.10;67.80;;;10.86;51.57;96797.97;4993075;28;20198;-17
2023/02/13 11:20:43;;;;;;;0.70;0.70;;;11.30;67.40;;;10.98;50.96;96798.59;4992800;28;20605;-17
2023/02/13 11:23:29;;;;;;;0.70;0.70;;;11.40;67.20;;;11.14;51.20;96798.75;4992711;28;20202;-17
2023/02/13 11:26:21;;;;;;;0.70;0.70;;;11.50;67.40;;;11.25;51.22;96794.28;4993526;28;20201;-18
2023/02/13 11:29:16;;;;;;;0.60;0.60;;;11.50;67.20;;;11.41;51.26;96793.59;4992746;28;20186;-18
2023/02/13 11:31:44;;;;;;;0.60;0.60;;;11.70;67.20;;;11.46;49.78;96792.19;4993670;28;20185;-18
2023/02/13 11:34:30;;;;;;;0.60;0.60;;;11.80;66.50;;;11.49;48.85;96786.63;4992656;28;20201;-17
2023/02/13 11:37:16;;;;;;;0.60;0.60;;;11.90;66.20;;;11.54;49.28;96789.63;4993405;28;20196;-18
2023/02/13 11:39:46;;;;;;;0.70;0.70;;;12.00;66.30;;;11.60;48.68;96796.06;4993371;28;20177;-17
2023/02/13 11:42:30;;;;;;;0.70;0.70;;;12.00;65.50;;;11.62;50.11;96791.50;4992707;28;20270;-17